Time;durP1;ratioP1;P1;durP2;ratioP2;P2;SDS_P1;SDS_P2;PMS_P1;PMS_P2;Temp;Humidity;BMP_temperature;BMP_pressure;BME280_temperature;BME280_humidity;BME280_pressure;Samples;Min_cycle;Max_cycle;Signal;HPM_P1;HPM_P2
2022/01/27 00:01:55;;;;;;;89.47;52.25;;;5.30;99.90;;;;;;4960989;28;20073;-69
2022/01/27 00:06:35;;;;;;;84.97;48.50;;;5.30;99.90;;;;;;4983088;28;20065;-69
2022/01/27 00:09:12;;;;;;;93.38;51.55;;;5.30;99.90;;;;;;4966592;28;20411;-69
2022/01/27 00:11:42;;;;;;;99.43;54.30;;;5.30;99.90;;;;;;4959202;28;20057;-70
2022/01/27 00:14:07;;;;;;;100.85;52.50;;;5.30;99.90;;;;;;4982929;28;20053;-69
2022/01/27 00:16:40;;;;;;;92.50;51.40;;;5.30;99.90;;;;;;4966188;28;20043;-69
2022/01/27 00:19:05;;;;;;;98.20;51.90;;;5.30;99.90;;;;;;4968635;28;20050;-70
2022/01/27 00:21:31;;;;;;;89.18;50.78;;;5.30;99.90;;;;;;4966253;28;20053;-70
2022/01/27 00:23:57;;;;;;;89.15;48.83;;;5.30;99.90;;;;;;4962704;28;20424;-70
2022/01/27 00:26:24;;;;;;;90.55;49.60;;;5.30;99.90;;;;;;4983980;28;20051;-69
2022/01/27 00:28:50;;;;;;;86.68;47.88;;;5.30;99.90;;;;;;4982361;28;20492;-70
2022/01/27 00:31:18;;;;;;;88.28;48.78;;;5.30;99.90;;;;;;4963745;28;20051;-70
2022/01/27 00:33:45;;;;;;;81.00;47.72;;;5.30;99.90;;;;;;4981244;28;20050;-69
2022/01/27 00:36:11;;;;;;;80.18;48.03;;;5.30;99.90;;;;;;4955586;28;20126;-69
2022/01/27 00:38:37;;;;;;;86.00;49.58;;;5.30;99.90;;;;;;4983293;28;20047;-69
2022/01/27 00:41:04;;;;;;;93.13;50.58;;;5.30;99.90;;;;;;4980802;28;20042;-69
2022/01/27 00:43:30;;;;;;;86.15;47.15;;;5.30;99.90;;;;;;4966932;28;20042;-70
2022/01/27 00:45:56;;;;;;;90.65;48.33;;;5.30;99.90;;;;;;4964451;28;20055;-69
2022/01/27 00:48:22;;;;;;;83.07;48.95;;;5.30;99.90;;;;;;4966609;28;20057;-70
2022/01/27 00:50:54;;;;;;;87.10;50.40;;;5.30;99.90;;;;;;4974003;28;20055;-69
2022/01/27 00:53:39;;;;;;;88.45;47.25;;;5.30;99.90;;;;;;4965171;28;20728;-70
2022/01/27 00:56:22;;;;;;;79.03;47.05;;;5.30;99.90;;;;;;4962516;28;20440;-69
2022/01/27 01:01:17;;;;;;;96.78;51.97;;;5.30;99.90;;;;;;4964673;28;20587;-69
2022/01/27 01:03:46;;;;;;;88.78;49.15;;;5.30;99.90;;;;;;4968957;28;20039;-69
2022/01/27 01:16:50;;;;;;;93.07;51.28;;;5.30;99.90;;;;;;4969280;28;20051;-69
2022/01/27 01:29:24;;;;;;;85.95;50.47;;;5.30;99.90;;;;;;4968616;28;20492;-69
2022/01/27 01:32:54;;;;;;;89.05;48.95;;;5.30;99.90;;;;;;4968117;28;20042;-69
2022/01/27 01:35:29;;;;;;;84.88;45.08;;;5.30;99.90;;;;;;4968768;28;20133;-69
2022/01/27 01:37:56;;;;;;;90.82;45.58;;;5.30;99.90;;;;;;4970337;28;20043;-69
2022/01/27 01:40:22;;;;;;;80.63;45.75;;;5.30;99.90;;;;;;4977440;28;20047;-69
2022/01/27 01:42:48;;;;;;;83.03;43.40;;;5.30;99.90;;;;;;4981726;28;20134;-68
2022/01/27 01:45:17;;;;;;;86.20;44.58;;;5.30;99.90;;;;;;4970087;28;20046;-69
2022/01/27 01:47:48;;;;;;;83.00;44.70;;;5.40;99.90;;;;;;4961079;28;20039;-69
2022/01/27 01:50:15;;;;;;;84.15;45.45;;;5.40;99.90;;;;;;4968249;28;20769;-69
2022/01/27 01:52:42;;;;;;;71.78;42.22;;;5.40;99.90;;;;;;4968135;28;20046;-69
2022/01/27 01:55:09;;;;;;;80.20;43.30;;;5.40;99.90;;;;;;4957226;28;20412;-69
2022/01/27 01:57:36;;;;;;;81.80;43.78;;;5.40;99.90;;;;;;4967630;28;20049;-69
2022/01/27 02:00:04;;;;;;;90.22;46.85;;;5.40;99.90;;;;;;4965283;28;20090;-69
2022/01/27 02:02:30;;;;;;;90.20;44.10;;;5.40;99.90;;;;;;4969016;28;20039;-69
2022/01/27 02:04:57;;;;;;;82.25;44.25;;;5.40;99.90;;;;;;4984650;28;20158;-69
2022/01/27 02:07:35;;;;;;;88.75;42.97;;;5.40;99.90;;;;;;4971310;28;20055;-69
2022/01/27 02:18:03;;;;;;;73.00;44.20;;;5.40;99.90;;;;;;4965966;28;20095;-69
2022/01/27 02:20:31;;;;;;;94.70;43.58;;;5.40;99.90;;;;;;4971150;28;20126;-69
2022/01/27 02:22:57;;;;;;;80.05;40.63;;;5.40;99.90;;;;;;4965419;28;20050;-69
2022/01/27 02:25:23;;;;;;;92.55;46.55;;;5.40;99.90;;;;;;4969152;28;20051;-69
2022/01/27 02:27:57;;;;;;;73.82;42.20;;;5.40;99.90;;;;;;4967987;28;20122;-69
2022/01/27 02:30:24;;;;;;;78.80;43.40;;;5.40;99.90;;;;;;4985440;28;20051;-69
2022/01/27 02:32:52;;;;;;;79.43;44.05;;;5.40;99.90;;;;;;4986139;28;20051;-69
2022/01/27 02:35:26;;;;;;;83.38;44.55;;;5.40;99.90;;;;;;4966159;28;20062;-69
2022/01/27 02:37:53;;;;;;;90.93;46.55;;;5.40;99.90;;;;;;4968879;28;20046;-70
2022/01/27 02:40:39;;;;;;;77.22;45.17;;;5.40;99.90;;;;;;4983411;28;20061;-69
2022/01/27 02:43:05;;;;;;;83.90;45.17;;;5.40;99.90;;;;;;4966718;28;20062;-69
2022/01/27 02:45:45;;;;;;;78.60;43.97;;;5.40;99.90;;;;;;4984257;28;20039;-69
2022/01/27 02:48:13;;;;;;;91.07;47.60;;;5.40;99.90;;;;;;4968477;28;20043;-69
2022/01/27 02:50:39;;;;;;;;;;;5.40;99.90;;;;;;4967238;28;20050;-69
2022/01/27 02:53:07;;;;;;;80.80;44.92;;;5.40;99.90;;;;;;4962250;28;19926;-69
2022/01/27 02:55:32;;;;;;;93.55;48.60;;;5.40;99.90;;;;;;4965382;28;20046;-69
2022/01/27 02:57:59;;;;;;;81.70;45.40;;;5.40;99.90;;;;;;4964376;28;20051;-69
2022/01/27 03:00:25;;;;;;;85.60;44.50;;;5.40;99.90;;;;;;4982078;28;20055;-69
2022/01/27 03:02:50;;;;;;;87.22;45.28;;;5.40;99.90;;;;;;4964382;28;20053;-69
2022/01/27 03:05:16;;;;;;;85.82;48.70;;;5.40;99.90;;;;;;4969431;28;20129;-69
2022/01/27 03:07:48;;;;;;;78.47;45.92;;;5.40;99.90;;;;;;4967466;28;20070;-69
2022/01/27 03:10:18;;;;;;;98.10;46.83;;;5.40;99.90;;;;;;4984931;28;20050;-69
2022/01/27 03:12:46;;;;;;;84.47;46.20;;;5.40;99.90;;;;;;4965237;28;20054;-69
2022/01/27 03:15:12;;;;;;;92.85;45.80;;;5.40;99.90;;;;;;4966128;28;20047;-69
2022/01/27 03:17:41;;;;;;;80.45;47.13;;;5.30;99.90;;;;;;4961676;28;20047;-69
2022/01/27 03:20:08;;;;;;;90.50;49.22;;;5.40;99.90;;;;;;4985223;28;20129;-69
2022/01/27 03:22:34;;;;;;;91.93;47.83;;;5.40;99.90;;;;;;4951268;28;20047;-69
2022/01/27 03:25:00;;;;;;;80.18;47.75;;;5.30;99.90;;;;;;4968968;28;20046;-69
2022/01/27 03:27:27;;;;;;;89.53;44.85;;;5.40;99.90;;;;;;4967356;28;20039;-69
2022/01/27 03:29:53;;;;;;;94.50;47.75;;;5.40;99.90;;;;;;4965191;28;20062;-69
2022/01/27 03:32:19;;;;;;;78.68;45.90;;;5.40;99.90;;;;;;4970715;28;20474;-69
2022/01/27 03:34:44;;;;;;;84.70;46.72;;;5.40;99.90;;;;;;4967697;28;20563;-69
2022/01/27 03:37:10;;;;;;;98.18;48.53;;;5.40;99.90;;;;;;4968497;28;20093;-69
2022/01/27 03:39:38;;;;;;;95.63;50.25;;;5.40;99.90;;;;;;4967373;28;20050;-69
2022/01/27 03:42:04;;;;;;;88.95;47.03;;;5.40;99.90;;;;;;4969142;28;20058;-69
2022/01/27 03:44:30;;;;;;;94.18;47.80;;;5.40;99.90;;;;;;4984921;28;20048;-69
2022/01/27 03:46:56;;;;;;;85.45;47.67;;;5.40;99.90;;;;;;4965200;28;20039;-69
2022/01/27 03:49:22;;;;;;;87.43;48.70;;;5.40;99.90;;;;;;4966420;28;20059;-69
2022/01/27 03:51:48;;;;;;;98.10;48.78;;;5.40;99.90;;;;;;4968751;28;20490;-69
2022/01/27 03:54:15;;;;;;;81.93;48.65;;;5.40;99.90;;;;;;4968404;28;20134;-69
2022/01/27 03:56:41;;;;;;;87.68;46.97;;;5.40;99.90;;;;;;4967618;28;20074;-69
2022/01/27 03:59:06;;;;;;;93.03;47.50;;;5.40;99.90;;;;;;4967134;28;20138;-69
2022/01/27 04:01:32;;;;;;;107.75;48.95;;;5.40;99.90;;;;;;4968294;28;20144;-69
2022/01/27 04:03:59;;;;;;;78.70;46.40;;;5.40;99.90;;;;;;4982709;28;20051;-69
2022/01/27 04:06:32;;;;;;;90.65;47.45;;;5.40;99.90;;;;;;4966667;28;20056;-69
2022/01/27 04:08:58;;;;;;;87.15;45.13;;;5.40;99.90;;;;;;4983178;28;20050;-69
2022/01/27 04:11:24;;;;;;;88.20;46.15;;;5.40;99.90;;;;;;4965979;28;20472;-69
2022/01/27 04:13:49;;;;;;;94.35;50.00;;;5.40;99.90;;;;;;4963515;28;20117;-69
2022/01/27 04:16:15;;;;;;;83.82;47.22;;;5.40;99.90;;;;;;4984256;28;20074;-69
2022/01/27 04:18:41;;;;;;;94.95;49.08;;;5.40;99.90;;;;;;4981544;28;20051;-70
2022/01/27 04:21:06;;;;;;;82.13;46.85;;;5.40;99.90;;;;;;4968188;28;20058;-69
2022/01/27 04:23:32;;;;;;;90.63;47.70;;;5.40;99.90;;;;;;4966317;28;20043;-69
2022/01/27 04:25:58;;;;;;;90.22;46.40;;;5.40;99.90;;;;;;4965544;28;20705;-69
2022/01/27 04:28:27;;;;;;;102.20;48.30;;;5.40;99.90;;;;;;4984166;28;20415;-69
2022/01/27 04:30:55;;;;;;;81.00;46.88;;;5.40;99.90;;;;;;4968468;28;20042;-69
2022/01/27 04:33:25;;;;;;;92.28;45.60;;;5.40;99.90;;;;;;4957967;28;20054;-70
2022/01/27 04:35:51;;;;;;;91.47;49.33;;;5.40;99.90;;;;;;4966770;28;20468;-69
2022/01/27 04:38:23;;;;;;;93.68;48.00;;;5.40;99.90;;;;;;4957525;28;20061;-69
2022/01/27 04:41:08;;;;;;;84.38;46.22;;;5.40;99.90;;;;;;4981131;28;20046;-69
2022/01/27 04:46:29;;;;;;;90.33;50.37;;;5.40;99.90;;;;;;4967270;28;20054;-70
2022/01/27 04:48:59;;;;;;;89.15;46.30;;;5.40;99.90;;;;;;4962588;28;20310;-70
2022/01/27 04:51:25;;;;;;;99.95;48.47;;;5.40;99.90;;;;;;4960240;28;20500;-69
2022/01/27 04:54:06;;;;;;;87.47;49.70;;;5.40;99.90;;;;;;4959825;28;20054;-69
2022/01/27 04:56:36;;;;;;;94.53;47.92;;;5.40;99.90;;;;;;4964742;28;20090;-69
2022/01/27 04:59:07;;;;;;;106.07;50.78;;;5.40;99.90;;;;;;4963732;28;20046;-69
2022/01/27 05:01:39;;;;;;;89.07;47.97;;;5.40;99.90;;;;;;4984040;28;20061;-69
2022/01/27 05:04:13;;;;;;;88.80;47.58;;;5.40;99.90;;;;;;4966633;28;20160;-69
2022/01/27 05:06:39;;;;;;;88.93;47.90;;;5.40;99.90;;;;;;4982640;28;20057;-70
2022/01/27 05:09:05;;;;;;;98.47;46.92;;;5.40;99.90;;;;;;4979566;28;20051;-70
2022/01/27 05:11:38;;;;;;;79.55;45.08;;;5.40;99.90;;;;;;4967966;28;20077;-70
2022/01/27 05:14:20;;;;;;;81.55;45.30;;;5.50;99.90;;;;;;4964748;28;20499;-70
2022/01/27 05:16:46;;;;;;;88.47;47.83;;;5.50;99.90;;;;;;4976077;28;20058;-70
2022/01/27 05:19:12;;;;;;;86.05;46.25;;;5.50;99.90;;;;;;4978710;28;20065;-69
2022/01/27 05:21:37;;;;;;;86.53;45.53;;;5.50;99.90;;;;;;4980110;28;20511;-70
2022/01/27 05:24:04;;;;;;;85.20;44.80;;;5.50;99.90;;;;;;4979072;28;20039;-69
2022/01/27 05:26:30;;;;;;;89.53;44.17;;;5.50;99.90;;;;;;4967983;28;20042;-69
2022/01/27 05:28:56;;;;;;;88.72;45.78;;;5.50;99.90;;;;;;4950327;28;20126;-70
2022/01/27 05:31:22;;;;;;;83.18;45.80;;;5.50;99.90;;;;;;4985013;28;20117;-70
2022/01/27 05:33:47;;;;;;;97.85;47.15;;;5.50;99.90;;;;;;4962036;28;20054;-70
2022/01/27 05:36:13;;;;;;;91.93;48.78;;;5.50;99.90;;;;;;4965319;28;20051;-70
2022/01/27 05:38:40;;;;;;;84.93;46.70;;;5.50;99.90;;;;;;4964228;28;20046;-70
2022/01/27 05:41:06;;;;;;;83.60;45.20;;;5.60;99.90;;;;;;4963961;28;20047;-70
2022/01/27 05:43:33;;;;;;;94.28;48.30;;;5.60;99.90;;;;;;4967491;28;20515;-71
2022/01/27 05:45:59;;;;;;;88.05;44.80;;;5.60;99.90;;;;;;4966040;28;20050;-70
2022/01/27 05:48:24;;;;;;;87.32;47.00;;;5.60;99.90;;;;;;4968478;28;20043;-70
2022/01/27 05:50:51;;;;;;;89.22;45.90;;;5.60;99.90;;;;;;4963854;28;20062;-70
2022/01/27 05:53:16;;;;;;;86.88;45.70;;;5.60;99.90;;;;;;4969191;28;20050;-70
2022/01/27 05:55:42;;;;;;;94.22;45.95;;;5.50;99.90;;;;;;4969401;28;20049;-70
2022/01/27 05:58:08;;;;;;;96.40;47.28;;;5.50;99.90;;;;;;4984831;28;20050;-72
2022/01/27 06:00:33;;;;;;;93.18;46.38;;;5.50;99.90;;;;;;4985395;28;20086;-70
2022/01/27 06:02:59;;;;;;;96.95;48.78;;;5.50;99.90;;;;;;4986885;28;20069;-71
2022/01/27 06:05:26;;;;;;;89.40;48.70;;;5.50;99.90;;;;;;4968778;28;20121;-70
2022/01/27 06:07:52;;;;;;;111.97;50.03;;;5.50;99.90;;;;;;4977807;28;20059;-70
2022/01/27 06:10:19;;;;;;;96.50;48.33;;;5.50;99.90;;;;;;4969179;28;20082;-70
2022/01/27 06:12:51;;;;;;;95.10;48.58;;;5.50;99.90;;;;;;4971020;28;20074;-70
2022/01/27 06:15:18;;;;;;;103.68;49.83;;;5.40;99.90;;;;;;4985788;28;20407;-69
2022/01/27 06:17:44;;;;;;;102.80;49.97;;;5.40;99.90;;;;;;4968897;28;20043;-70
2022/01/27 06:20:10;;;;;;;101.10;49.15;;;5.40;99.90;;;;;;4971612;28;20062;-71
2022/01/27 06:22:36;;;;;;;112.15;49.92;;;5.40;99.90;;;;;;4970084;28;20878;-70
2022/01/27 06:25:02;;;;;;;94.35;48.70;;;5.40;99.90;;;;;;4966571;28;20500;-70
2022/01/27 06:27:28;;;;;;;84.88;45.95;;;5.40;99.90;;;;;;4985629;28;20408;-70
2022/01/27 06:29:53;;;;;;;98.57;50.00;;;5.40;99.90;;;;;;4972334;28;20057;-70
2022/01/27 06:32:19;;;;;;;91.40;47.20;;;5.40;99.90;;;;;;4984043;28;20558;-70
2022/01/27 06:34:46;;;;;;;103.57;46.92;;;5.40;99.90;;;;;;4984631;28;20042;-70
2022/01/27 06:37:12;;;;;;;97.97;48.00;;;5.50;99.90;;;;;;4986144;28;20463;-70
2022/01/27 06:39:38;;;;;;;91.63;45.40;;;5.40;99.90;;;;;;4951116;28;20053;-70
2022/01/27 06:42:05;;;;;;;102.03;46.65;;;5.40;99.90;;;;;;4964182;28;20061;-69
2022/01/27 06:44:31;;;;;;;84.10;44.35;;;5.50;99.90;;;;;;4969237;28;20051;-69
2022/01/27 06:47:00;;;;;;;90.80;44.10;;;5.50;99.90;;;;;;4968275;28;20812;-69
2022/01/27 06:49:26;;;;;;;85.18;42.28;;;5.50;99.90;;;;;;4967267;28;20062;-68
2022/01/27 06:51:51;;;;;;;89.68;44.25;;;5.50;99.90;;;;;;4983896;28;20062;-69
2022/01/27 06:54:18;;;;;;;85.25;43.42;;;5.50;99.90;;;;;;4984282;28;20401;-70
2022/01/27 06:56:44;;;;;;;91.88;47.25;;;5.50;99.90;;;;;;4968489;28;20076;-69
2022/01/27 06:59:10;;;;;;;75.03;41.03;;;5.50;99.90;;;;;;4969326;28;20145;-70
2022/01/27 07:01:36;;;;;;;67.10;38.60;;;5.50;99.90;;;;;;4981248;28;20126;-70
2022/01/27 07:04:02;;;;;;;90.28;42.72;;;5.50;99.90;;;;;;4969295;28;20054;-71
2022/01/27 07:06:28;;;;;;;76.90;41.47;;;5.50;99.90;;;;;;4969534;28;20054;-70
2022/01/27 07:08:54;;;;;;;77.82;39.15;;;5.50;99.90;;;;;;4970751;28;20043;-70
2022/01/27 07:11:20;;;;;;;74.95;39.90;;;5.50;99.90;;;;;;4969992;28;20035;-70
2022/01/27 07:13:46;;;;;;;73.70;39.38;;;5.60;99.90;;;;;;4968300;28;20522;-70
2022/01/27 07:16:11;;;;;;;78.00;39.47;;;5.60;99.90;;;;;;4970656;28;20047;-71
2022/01/27 07:18:38;;;;;;;74.07;37.15;;;5.60;99.90;;;;;;4967935;28;20420;-71
2022/01/27 07:21:04;;;;;;;78.07;40.72;;;5.60;99.90;;;;;;4968552;28;20149;-70
2022/01/27 07:23:30;;;;;;;75.20;39.22;;;5.60;99.90;;;;;;4968721;28;20047;-70
2022/01/27 07:25:56;;;;;;;61.95;36.33;;;5.60;99.90;;;;;;4967738;28;20587;-70
2022/01/27 07:28:21;;;;;;;56.10;33.53;;;5.60;99.90;;;;;;4986522;28;20051;-70
2022/01/27 07:30:47;;;;;;;63.72;33.92;;;5.60;99.90;;;;;;4967860;28;20054;-70
2022/01/27 07:33:13;;;;;;;68.30;34.83;;;5.60;99.90;;;;;;4982768;28;20500;-71
2022/01/27 07:35:39;;;;;;;65.53;35.60;;;5.60;99.90;;;;;;4976774;28;20050;-70
2022/01/27 07:38:05;;;;;;;56.92;34.17;;;5.70;99.90;;;;;;4967646;28;20047;-71
2022/01/27 07:40:31;;;;;;;64.57;34.67;;;5.70;99.90;;;;;;4968929;28;20050;-71
2022/01/27 07:42:57;;;;;;;65.72;33.80;;;5.70;99.90;;;;;;4969468;28;20038;-69
2022/01/27 07:45:23;;;;;;;57.75;31.67;;;5.70;99.90;;;;;;4967601;28;20053;-68
2022/01/27 07:47:48;;;;;;;73.97;34.58;;;5.70;99.90;;;;;;4970021;28;20054;-69
2022/01/27 07:50:14;;;;;;;49.45;30.55;;;5.70;99.90;;;;;;4964991;28;22046;-70
2022/01/27 07:52:43;;;;;;;56.92;30.00;;;5.80;99.90;;;;;;4960433;28;20050;-68
2022/01/27 07:55:09;;;;;;;49.08;28.25;;;5.80;99.90;;;;;;4982997;28;20098;-69
2022/01/27 07:57:36;;;;;;;55.80;28.70;;;5.80;99.90;;;;;;4966073;28;20492;-69
2022/01/27 08:00:03;;;;;;;50.10;28.85;;;5.80;99.90;;;;;;4969399;28;20568;-70
2022/01/27 08:02:29;;;;;;;62.90;32.50;;;5.80;99.90;;;;;;4983589;28;20047;-70
2022/01/27 08:04:55;;;;;;;55.53;29.67;;;5.80;99.90;;;;;;4968748;28;20086;-69
2022/01/27 08:07:20;;;;;;;58.97;30.80;;;5.90;99.90;;;;;;4965358;28;20101;-71
2022/01/27 08:09:48;;;;;;;56.30;30.23;;;5.90;99.90;;;;;;4966471;28;20542;-70
2022/01/27 08:12:13;;;;;;;56.13;31.10;;;6.00;99.90;;;;;;4958769;28;20074;-72
2022/01/27 08:14:40;;;;;;;50.83;30.05;;;6.00;99.90;;;;;;4980640;28;20166;-70
2022/01/27 08:17:05;;;;;;;53.45;30.13;;;6.00;99.90;;;;;;4966585;28;20459;-71
2022/01/27 08:19:31;;;;;;;61.47;32.40;;;6.10;99.90;;;;;;4965935;28;20054;-70
2022/01/27 08:21:57;;;;;;;55.42;30.00;;;6.10;99.90;;;;;;4967205;28;20051;-71
2022/01/27 08:24:22;;;;;;;61.38;32.78;;;6.10;99.90;;;;;;4980396;28;20082;-71
2022/01/27 08:26:50;;;;;;;59.47;32.13;;;6.20;99.90;;;;;;4962098;28;20051;-71
2022/01/27 08:29:41;;;;;;;73.43;34.72;;;6.20;99.90;;;;;;4962229;28;20464;-71
2022/01/27 08:32:02;;;;;;;67.53;34.10;;;6.20;99.90;;;;;;4962397;28;20208;-71
2022/01/27 08:34:41;;;;;;;75.70;34.90;;;6.30;99.90;;;;;;4966759;28;20559;-71
2022/01/27 08:37:18;;;;;;;80.57;41.00;;;6.30;99.90;;;;;;4963859;28;20083;-72
2022/01/27 08:39:46;;;;;;;72.15;38.25;;;6.30;99.90;;;;;;4959247;28;20047;-72
2022/01/27 08:42:13;;;;;;;80.90;40.08;;;6.40;99.90;;;;;;4968791;28;20031;-70
2022/01/27 08:44:39;;;;;;;80.18;36.83;;;6.40;99.90;;;;;;4963496;28;20047;-70
2022/01/27 08:47:06;;;;;;;84.43;39.03;;;6.40;99.90;;;;;;4982968;28;20057;-70
2022/01/27 08:49:33;;;;;;;75.32;35.60;;;6.50;99.90;;;;;;4966772;28;20055;-70
2022/01/27 08:51:59;;;;;;;65.38;35.30;;;6.50;99.90;;;;;;4962672;28;20121;-69
2022/01/27 08:54:26;;;;;;;74.35;33.38;;;6.50;99.90;;;;;;4984636;28;20094;-69
2022/01/27 08:56:53;;;;;;;80.47;34.40;;;6.60;99.90;;;;;;4966675;28;20043;-70
2022/01/27 08:59:18;;;;;;;83.00;34.78;;;6.60;99.90;;;;;;4967707;28;20055;-70
2022/01/27 09:01:46;;;;;;;70.70;32.03;;;6.70;99.90;;;;;;4964583;28;20078;-70
2022/01/27 09:04:12;;;;;;;63.10;32.20;;;6.70;99.90;;;;;;4983027;28;20065;-70
2022/01/27 09:06:37;;;;;;;71.63;31.10;;;6.80;99.90;;;;;;4968575;28;20210;-70
2022/01/27 09:09:05;;;;;;;75.05;29.85;;;6.80;99.90;;;;;;4965863;28;20039;-70
2022/01/27 09:11:31;;;;;;;53.45;26.92;;;6.90;99.90;;;;;;4969502;28;20050;-70
2022/01/27 09:13:58;;;;;;;72.25;27.52;;;6.90;99.90;;;;;;4981527;28;20078;-70
2022/01/27 09:16:27;;;;;;;61.70;28.08;;;7.00;99.90;;;;;;4967763;28;20049;-69
2022/01/27 09:18:55;;;;;;;59.40;26.02;;;7.00;99.90;;;;;;4962696;28;20105;-70
2022/01/27 09:21:24;;;;;;;50.45;26.40;;;7.10;99.90;;;;;;4964657;28;20049;-70
2022/01/27 09:23:51;;;;;;;61.33;26.35;;;7.10;99.90;;;;;;4969682;28;20065;-70
2022/01/27 09:26:41;;;;;;;50.88;25.00;;;7.10;99.90;;;;;;4986629;28;20051;-69
2022/01/27 09:29:07;;;;;;;68.28;25.88;;;7.20;99.90;;;;;;4969414;28;20066;-70
2022/01/27 09:31:34;;;;;;;48.28;22.30;;;7.20;99.90;;;;;;4971097;28;20039;-69
2022/01/27 09:34:00;;;;;;;51.63;22.50;;;7.20;99.90;;;;;;4970690;28;20053;-70
2022/01/27 09:36:25;;;;;;;46.88;22.73;;;7.30;99.90;;;;;;4983561;28;20039;-70
2022/01/27 09:38:51;;;;;;;48.67;22.25;;;7.30;99.90;;;;;;4969607;28;20047;-70
2022/01/27 09:41:20;;;;;;;55.60;23.90;;;7.30;99.90;;;;;;4969346;28;20050;-69
2022/01/27 09:43:46;;;;;;;;;;;7.30;99.90;;;;;;4969923;28;20054;-69
2022/01/27 09:46:16;;;;;;;39.78;20.38;;;7.40;99.90;;;;;;4970709;28;19930;-70
2022/01/27 09:48:44;;;;;;;60.83;21.63;;;7.40;99.90;;;;;;4969330;28;20524;-69
2022/01/27 09:51:55;;;;;;;40.70;19.27;;;7.40;99.90;;;;;;4971504;28;20062;-68
2022/01/27 09:53:57;;;;;;;44.95;19.55;;;7.50;99.90;;;;;;4957416;28;20598;-69
2022/01/27 09:56:24;;;;;;;44.60;19.58;;;7.60;99.90;;;;;;4969828;28;20043;-68
2022/01/27 09:58:50;;;;;;;45.25;18.70;;;7.60;99.90;;;;;;4987136;28;20397;-69
2022/01/27 10:01:16;;;;;;;50.17;17.75;;;7.60;99.90;;;;;;4969235;28;20050;-69
2022/01/27 10:03:53;;;;;;;48.13;16.65;;;7.60;99.90;;;;;;4978447;28;20045;-69
2022/01/27 10:06:21;;;;;;;48.67;18.15;;;7.70;99.90;;;;;;4984397;28;20047;-69
2022/01/27 10:09:14;;;;;;;46.47;17.63;;;7.70;99.90;;;;;;4966817;28;20206;-69
2022/01/27 10:11:40;;;;;;;38.65;15.77;;;7.70;99.90;;;;;;4964571;28;20498;-69
2022/01/27 10:14:27;;;;;;;39.83;16.27;;;7.70;99.90;;;;;;4970649;28;20042;-69
2022/01/27 10:17:00;;;;;;;33.92;14.63;;;7.80;99.90;;;;;;4984098;28;20452;-69
2022/01/27 10:19:26;;;;;;;32.55;15.25;;;7.80;99.90;;;;;;4987342;28;20049;-69
2022/01/27 10:22:03;;;;;;;35.85;13.98;;;7.80;99.90;;;;;;4985233;28;20047;-69
2022/01/27 10:24:31;;;;;;;39.90;14.63;;;7.90;99.90;;;;;;4969877;28;20078;-69
2022/01/27 10:27:22;;;;;;;41.33;13.75;;;7.90;99.90;;;;;;4971527;28;20128;-69
2022/01/27 10:32:45;;;;;;;31.95;12.20;;;8.00;99.90;;;;;;4965885;28;20101;-68
2022/01/27 10:35:13;;;;;;;30.02;12.07;;;8.10;99.90;;;;;;4969950;28;20515;-68
2022/01/27 10:38:05;;;;;;;30.80;12.70;;;8.10;99.90;;;;;;4970208;28;20114;-69
2022/01/27 10:40:35;;;;;;;50.08;14.13;;;8.20;99.90;;;;;;4967222;28;20125;-69
2022/01/27 10:43:23;;;;;;;40.92;13.20;;;8.20;99.90;;;;;;4964553;28;20039;-69
2022/01/27 10:46:30;;;;;;;37.55;12.65;;;8.20;99.90;;;;;;4968857;28;20043;-68
2022/01/27 10:51:26;;;;;;;30.23;11.30;;;8.20;99.90;;;;;;4969156;28;20523;-68
2022/01/27 10:54:42;;;;;;;32.03;13.15;;;8.30;99.90;;;;;;4966835;28;20047;-68
2022/01/27 10:56:49;;;;;;;32.47;12.02;;;8.30;99.90;;;;;;4956462;28;20053;-69
2022/01/27 10:59:18;;;;;;;30.30;11.70;;;8.30;99.90;;;;;;4964559;28;20205;-69
2022/01/27 11:01:46;;;;;;;30.92;11.13;;;8.30;99.90;;;;;;4959406;28;20428;-69
2022/01/27 11:04:14;;;;;;;25.77;11.65;;;8.40;99.90;;;;;;4964090;28;20411;-69
2022/01/27 11:07:01;;;;;;;33.35;11.35;;;8.40;99.90;;;;;;4969504;28;20153;-68
2022/01/27 11:09:29;;;;;;;21.92;10.30;;;8.40;99.90;;;;;;4969392;28;20050;-69
2022/01/27 11:11:56;;;;;;;29.92;11.20;;;8.40;99.90;;;;;;4965538;28;20046;-68
2022/01/27 11:14:25;;;;;;;32.60;12.85;;;8.40;99.90;;;;;;4980451;28;20085;-69
2022/01/27 11:16:56;;;;;;;31.75;10.90;;;8.50;99.90;;;;;;4978775;28;20425;-68
2022/01/27 11:27:30;;;;;;;20.77;10.20;;;8.60;99.90;;;;;;4966749;28;20126;-69
2022/01/27 11:30:22;;;;;;;32.65;10.90;;;8.60;99.90;;;;;;4969170;28;20039;-69
2022/01/27 11:33:01;;;;;;;32.33;10.50;;;8.60;99.90;;;;;;4983960;28;20053;-69
2022/01/27 11:35:27;;;;;;;38.22;11.55;;;8.60;99.90;;;;;;4968666;28;20448;-69
2022/01/27 11:37:58;;;;;;;29.30;9.52;;;8.60;99.90;;;;;;4963742;28;20042;-69
2022/01/27 11:40:53;;;;;;;31.23;9.35;;;8.70;99.90;;;;;;4962131;28;20112;-69
2022/01/27 11:43:33;;;;;;;22.67;9.20;;;8.60;99.90;;;;;;4951254;28;20169;-68
2022/01/27 11:46:15;;;;;;;32.65;10.60;;;8.60;99.90;;;;;;4966912;28;20063;-68
2022/01/27 11:48:41;;;;;;;36.58;11.45;;;8.60;99.90;;;;;;4966958;28;20046;-69
2022/01/27 11:51:09;;;;;;;49.53;9.98;;;8.60;99.90;;;;;;4967156;28;20051;-69
2022/01/27 11:53:51;;;;;;;29.92;9.32;;;8.60;99.90;;;;;;4965059;28;20493;-68
2022/01/27 11:56:27;;;;;;;30.70;8.93;;;8.60;99.90;;;;;;4967498;28;20079;-69
2022/01/27 11:58:53;;;;;;;26.35;8.93;;;8.60;99.90;;;;;;4969239;28;20065;-68
2022/01/27 12:01:25;;;;;;;23.52;8.27;;;8.60;99.90;;;;;;4969210;28;20094;-68
2022/01/27 12:04:04;;;;;;;45.20;9.25;;;8.60;99.90;;;;;;4963942;28;20093;-68
2022/01/27 12:06:34;;;;;;;26.50;9.07;;;8.70;99.90;;;;;;4964613;28;20043;-68
2022/01/27 12:09:21;;;;;;;34.58;9.73;;;8.70;99.90;;;;;;4966387;28;20125;-68
2022/01/27 12:11:57;;;;;;;32.13;8.40;;;8.70;99.90;;;;;;4965363;28;20058;-68
2022/01/27 12:14:31;;;;;;;29.67;8.70;;;8.60;99.90;;;;;;4962174;28;20050;-68
2022/01/27 12:17:09;;;;;;;32.95;8.90;;;8.70;99.90;;;;;;4984123;28;20057;-67
2022/01/27 12:19:55;;;;;;;50.10;10.35;;;8.70;99.90;;;;;;4982860;28;20051;-68
2022/01/27 12:22:28;;;;;;;28.50;8.70;;;8.70;99.90;;;;;;4955860;28;20535;-68
2022/01/27 12:25:02;;;;;;;15.85;7.43;;;8.70;99.90;;;;;;4983230;28;20105;-68
2022/01/27 12:27:29;;;;;;;22.85;8.43;;;8.70;99.90;;;;;;4964975;28;20062;-68
2022/01/27 12:29:57;;;;;;;33.25;9.05;;;8.70;99.90;;;;;;4968922;28;20538;-67
2022/01/27 12:32:27;;;;;;;30.35;7.57;;;8.80;99.90;;;;;;4966873;28;20484;-68
2022/01/27 12:35:14;;;;;;;26.30;8.48;;;8.80;99.90;;;;;;4964352;28;20539;-68
2022/01/27 12:37:42;;;;;;;29.75;9.30;;;8.80;99.90;;;;;;4969167;28;20039;-67
2022/01/27 12:40:22;;;;;;;38.90;8.65;;;8.80;99.90;;;;;;4966396;28;20172;-68
2022/01/27 12:43:03;;;;;;;20.30;8.20;;;8.80;99.90;;;;;;4961064;28;20496;-68
2022/01/27 12:45:34;;;;;;;44.33;8.27;;;8.80;99.90;;;;;;4978721;28;20049;-68
2022/01/27 12:48:07;;;;;;;31.20;8.88;;;8.80;99.90;;;;;;4967416;28;20050;-68
2022/01/27 12:50:35;;;;;;;38.33;10.10;;;8.80;99.90;;;;;;4982682;28;20093;-68
2022/01/27 12:53:07;;;;;;;21.27;6.88;;;8.80;99.90;;;;;;4964197;28;20050;-69
2022/01/27 12:55:36;;;;;;;48.70;8.60;;;8.80;99.90;;;;;;4968862;28;20047;-68
2022/01/27 12:58:03;;;;;;;24.42;7.30;;;8.80;99.90;;;;;;4971167;28;20050;-68
2022/01/27 13:00:39;;;;;;;32.97;7.83;;;8.80;99.90;;;;;;4973873;28;20047;-68
2022/01/27 13:03:05;;;;;;;28.98;8.32;;;8.80;99.90;;;;;;4970061;28;20291;-69
2022/01/27 13:05:37;;;;;;;25.58;7.43;;;8.80;99.90;;;;;;4970750;28;20411;-68
2022/01/27 13:08:06;;;;;;;31.45;8.50;;;8.80;99.90;;;;;;4971837;28;20106;-68
2022/01/27 13:10:32;;;;;;;31.27;7.80;;;8.70;99.90;;;;;;4970830;28;20520;-69
2022/01/27 13:13:12;;;;;;;42.53;8.82;;;8.70;99.90;;;;;;4985566;28;20043;-68
2022/01/27 13:15:40;;;;;;;32.03;7.85;;;8.70;99.90;;;;;;4985961;28;20125;-68
2022/01/27 13:18:16;;;;;;;33.33;8.80;;;8.70;99.90;;;;;;4972815;28;20046;-69
2022/01/27 13:20:49;;;;;;;32.70;7.88;;;8.70;99.90;;;;;;4969390;28;20062;-68
2022/01/27 13:26:05;;;;;;;32.67;8.18;;;8.70;99.90;;;;;;4966763;28;20150;-68
2022/01/27 13:28:36;;;;;;;25.35;7.03;;;8.70;99.90;;;;;;4969457;28;20039;-67
2022/01/27 13:31:05;;;;;;;31.73;8.48;;;8.70;99.90;;;;;;4967082;28;20054;-68
2022/01/27 13:33:40;;;;;;;38.33;8.20;;;8.70;99.90;;;;;;4985837;28;20046;-68
2022/01/27 13:36:09;;;;;;;25.85;7.13;;;8.70;99.90;;;;;;4967483;28;20055;-68
2022/01/27 13:38:50;;;;;;;31.02;8.93;;;8.70;99.90;;;;;;4985843;28;20411;-67
2022/01/27 13:41:16;;;;;;;38.70;8.70;;;8.70;99.90;;;;;;4972321;28;20555;-67
2022/01/27 13:43:44;;;;;;;34.25;7.88;;;8.70;99.90;;;;;;4969214;28;20055;-67